Time;durP1;ratioP1;P1;durP2;ratioP2;P2;SDS_P1;SDS_P2;PMS_P1;PMS_P2;Temp;Humidity;BMP_temperature;BMP_pressure;BME280_temperature;BME280_humidity;BME280_pressure;Samples;Min_cycle;Max_cycle;Signal;HPM_P1;HPM_P2
2023/08/16 00:01:33;;;;;;;;;;;;;;;20.80;71.50;101440.83;108696;1258;59762;-90
2023/08/16 00:04:04;;;;;;;;;;;;;;;20.78;71.59;101441.91;108016;1259;125491;-91
2023/08/16 00:06:34;;;;;;;;;;;;;;;20.77;71.58;101445.84;108665;1258;73667;-88
2023/08/16 00:09:01;;;;;;;;;;;;;;;20.76;71.63;101450.49;108452;1266;125356;-91
2023/08/16 00:11:31;;;;;;;;;;;;;;;20.75;71.73;101445.16;108564;1259;73035;-91
2023/08/16 00:13:58;;;;;;;;;;;;;;;20.73;71.73;101439.27;108525;1260;60449;-91
2023/08/16 00:16:27;;;;;;;;;;;;;;;20.71;71.77;101442.49;108474;1259;125507;-90
2023/08/16 00:18:54;;;;;;;;;;;;;;;20.69;71.87;101443.04;108768;1259;74659;-89
2023/08/16 00:21:21;;;;;;;;;;;;;;;20.67;71.90;101441.27;108490;1265;124456;-89
2023/08/16 00:23:48;;;;;;;;;;;;;;;20.65;71.94;101437.54;108500;1261;75556;-90
2023/08/16 00:26:15;;;;;;;;;;;;;;;20.64;72.18;101433.80;108525;1258;125957;-90
2023/08/16 00:28:45;;;;;;;;;;;;;;;20.63;72.11;101433.80;108537;1259;60714;-91
2023/08/16 00:31:12;;;;;;;;;;;;;;;20.63;72.18;101435.76;108434;1266;75620;-91
2023/08/16 00:33:39;;;;;;;;;;;;;;;20.61;72.09;101437.38;108405;1258;125007;-90
2023/08/16 00:36:06;;;;;;;;;;;;;;;20.58;72.14;101432.73;108802;1259;72393;-91
2023/08/16 00:38:33;;;;;;;;;;;;;;;20.57;72.19;101432.36;108494;1265;126148;-90
2023/08/16 00:41:00;;;;;;;;;;;;;;;20.56;72.21;101432.02;108676;1259;59514;-91
2023/08/16 00:43:31;;;;;;;;;;;;;;;20.55;72.25;101435.41;108787;1259;73426;-91
2023/08/16 00:45:58;;;;;;;;;;;;;;;20.56;72.30;101432.03;108286;1259;125928;-90
2023/08/16 00:48:25;;;;;;;;;;;;;;;20.55;72.37;101430.95;108753;1258;72849;-89
2023/08/16 00:50:52;;;;;;;;;;;;;;;20.56;72.34;101431.84;108617;1263;124743;-90
2023/08/16 00:53:19;;;;;;;;;;;;;;;20.56;72.32;101430.95;108962;1259;59615;-89
2023/08/16 00:55:48;;;;;;;;;;;;;;;20.56;72.35;101432.55;108841;1259;73320;-89
2023/08/16 00:58:15;;;;;;;;;;;;;;;20.55;72.36;101430.60;108557;1265;125643;-90
2023/08/16 01:00:42;;;;;;;;;;;;;;;20.55;72.29;101431.48;108735;1257;72076;-89
2023/08/16 01:03:11;;;;;;;;;;;;;;;20.54;72.33;101432.74;108617;1259;125599;-90
2023/08/16 01:05:38;;;;;;;;;;;;;;;20.52;72.38;101436.86;108572;1265;60564;-90
2023/08/16 01:08:05;;;;;;;;;;;;;;;20.51;72.43;101435.98;108621;1264;74659;-90
2023/08/16 01:10:35;;;;;;;;;;;;;;;20.50;72.46;101435.61;108439;1257;125110;-90
2023/08/16 01:13:06;;;;;;;;;;;;;;;20.50;72.44;101433.84;108558;1259;72696;-90
2023/08/16 01:15:33;;;;;;;;;;;;;;;20.49;72.48;101432.06;108466;1264;125468;-90
2023/08/16 01:18:01;;;;;;;;;;;;;;;20.49;72.50;101433.66;108515;1260;59540;-89
2023/08/16 01:20:28;;;;;;;;;;;;;;;20.48;72.52;101433.14;108476;1259;125077;-91
2023/08/16 01:23:03;;;;;;;;;;;;;;;20.47;72.47;101432.77;108650;1257;65959;-90
2023/08/16 01:25:37;;;;;;;;;;;;;;;20.46;72.45;101430.29;108737;1259;72970;-90
2023/08/16 01:28:04;;;;;;;;;;;;;;;20.46;72.59;101429.74;108405;1259;125564;-88
2023/08/16 01:30:31;;;;;;;;;;;;;;;20.47;72.50;101430.11;108578;1260;60840;-91
2023/08/16 01:33:18;;;;;;;;;;;;;;;20.48;72.48;101434.21;108827;1260;125358;-96
2023/08/16 01:35:46;;;;;;;;;;;;;;;20.50;72.49;101429.39;108077;1260;67102;-94
2023/08/16 01:38:19;;;;;;;;;;;;;;;20.52;72.37;101427.40;107854;1257;125237;-89
2023/08/16 01:41:00;;;;;;;;;;;;;;;20.54;72.32;101428.11;107785;1260;59714;-89
2023/08/16 01:43:27;;;;;;;;;;;;;;;20.59;72.28;101431.13;107616;1257;61232;-89
2023/08/16 01:45:54;;;;;;;;;;;;;;;20.64;72.26;101429.51;107400;1264;125005;-90
2023/08/16 01:48:21;;;;;;;;;;;;;;;20.70;72.19;101429.48;107506;1260;65353;-90
2023/08/16 01:50:48;;;;;;;;;;;;;;;20.76;72.04;101431.05;107443;1259;124421;-90
2023/08/16 01:53:18;;;;;;;;;;;;;;;20.81;71.94;101428.52;107478;1262;59755;-89
2023/08/16 01:55:45;;;;;;;;;;;;;;;20.87;71.79;101426.52;107480;1259;61221;-89
2023/08/16 01:58:12;;;;;;;;;;;;;;;20.93;71.65;101422.91;107527;1260;124205;-91
2023/08/16 02:00:39;;;;;;;;;;;;;;;20.98;71.53;101427.86;107666;1259;65512;-90
2023/08/16 02:03:10;;;;;;;;;;;;;;;21.04;71.32;101428.54;107320;1267;122930;-90
2023/08/16 02:05:37;;;;;;;;;;;;;;;21.06;71.20;101422.98;107701;1259;61103;-91
2023/08/16 02:08:06;;;;;;;;;;;;;;;21.09;71.08;101429.04;107483;1261;60076;-90
2023/08/16 02:10:33;;;;;;;;;;;;;;;21.09;70.94;101426.36;107502;1265;125523;-91
2023/08/16 02:13:03;;;;;;;;;;;;;;;21.11;70.78;101427.23;107894;1261;66418;-91
2023/08/16 02:15:30;;;;;;;;;;;;;;;21.11;70.60;101430.08;107878;1260;125810;-90
2023/08/16 02:17:57;;;;;;;;;;;;;;;21.11;70.59;101432.39;107726;1260;60015;-90
2023/08/16 02:20:24;;;;;;;;;;;;;;;21.11;70.46;101438.30;107704;1259;125446;-93
2023/08/16 02:22:53;;;;;;;;;;;;;;;21.08;70.43;101442.61;107947;1259;73058;-92
2023/08/16 02:25:20;;;;;;;;;;;;;;;21.01;70.50;101448.37;108076;1260;65701;-91
2023/08/16 02:27:48;;;;;;;;;;;;;;;20.90;70.54;101458.96;107825;1261;124859;-90
2023/08/16 02:30:17;;;;;;;;;;;;;;;20.79;70.67;101453.50;107875;1261;60952;-90
2023/08/16 02:32:44;;;;;;;;;;;;;;;20.70;70.84;101451.59;107549;1259;124020;-90
2023/08/16 02:35:12;;;;;;;;;;;;;;;20.63;70.93;101455.20;107464;1259;76046;-91
2023/08/16 02:37:41;;;;;;;;;;;;;;;20.56;71.13;101453.95;107564;1265;66966;-89
2023/08/16 02:40:08;;;;;;;;;;;;;;;20.52;71.25;101450.59;107711;1261;125402;-88
2023/08/16 02:42:35;;;;;;;;;;;;;;;20.48;71.36;101442.94;107634;1260;60662;-88
2023/08/16 02:45:02;;;;;;;;;;;;;;;20.46;71.50;101441.52;107461;1260;124878;-88
2023/08/16 02:47:29;;;;;;;;;;;;;;;20.46;71.53;101445.09;107593;1264;74584;-88
2023/08/16 02:49:59;;;;;;;;;;;;;;;20.49;71.76;101444.00;107511;1259;66134;-89
2023/08/16 02:52:29;;;;;;;;;;;;;;;20.57;71.76;101446.83;108507;1259;125195;-88
2023/08/16 02:54:56;;;;;;;;;;;;;;;20.70;71.79;101447.31;108635;1260;59693;-89
2023/08/16 02:57:26;;;;;;;;;;;;;;;20.83;71.68;101444.02;108413;1260;126251;-89
2023/08/16 02:59:53;;;;;;;;;;;;;;;20.95;71.48;101437.17;108512;1264;74441;-89
2023/08/16 03:02:20;;;;;;;;;;;;;;;21.05;71.22;101439.77;108451;1259;125253;-89
2023/08/16 03:04:54;;;;;;;;;;;;;;;21.12;71.09;101434.36;108374;1263;71966;-89
2023/08/16 03:07:22;;;;;;;;;;;;;;;21.18;70.94;101432.72;108047;1257;61139;-87
2023/08/16 03:09:49;;;;;;;;;;;;;;;21.21;70.75;101434.65;108331;1265;124829;-88
2023/08/16 03:12:16;;;;;;;;;;;;;;;21.22;70.60;101438.20;108499;1259;73897;-88
2023/08/16 03:14:43;;;;;;;;;;;;;;;21.24;70.50;101439.63;108414;1260;125763;-87
2023/08/16 03:17:10;;;;;;;;;;;;;;;21.23;70.37;101445.16;108697;1265;72732;-87
2023/08/16 03:19:37;;;;;;;;;;;;;;;21.21;70.37;101446.25;108627;1267;59422;-87
2023/08/16 03:22:07;;;;;;;;;;;;;;;21.18;70.28;101451.45;108597;1266;127057;-87
2023/08/16 03:24:33;;;;;;;;;;;;;;;21.15;70.34;101451.30;108831;1259;73797;-87
2023/08/16 03:27:00;;;;;;;;;;;;;;;21.12;70.28;101448.11;108615;1259;123665;-88
2023/08/16 03:29:27;;;;;;;;;;;;;;;21.12;70.35;101451.49;108711;1260;71905;-87
2023/08/16 03:31:55;;;;;;;;;;;;;;;21.13;70.41;101453.46;108916;1259;59408;-88
2023/08/16 03:34:22;;;;;;;;;;;;;;;21.14;70.37;101454.34;108615;1260;125203;-87
2023/08/16 03:36:49;;;;;;;;;;;;;;;21.15;70.34;101453.25;108820;1259;73353;-88
2023/08/16 03:39:16;;;;;;;;;;;;;;;21.16;70.34;101455.74;108567;1267;124457;-88
2023/08/16 03:41:43;;;;;;;;;;;;;;;21.18;70.30;101460.75;108657;1259;73223;-88
2023/08/16 03:44:11;;;;;;;;;;;;;;;21.21;70.30;101464.63;108650;1260;124660;-88
2023/08/16 03:46:40;;;;;;;;;;;;;;;21.25;70.37;101465.67;108652;1260;59891;-88
2023/08/16 03:49:10;;;;;;;;;;;;;;;21.40;70.66;101465.03;108584;1261;75386;-86
2023/08/16 03:51:40;;;;;;;;;;;;;;;21.78;70.77;101457.91;108435;1259;124619;-87
2023/08/16 03:54:07;;;;;;;;;;;;;;;22.17;70.49;101461.06;108711;1260;72689;-87
2023/08/16 03:56:34;;;;;;;;;;;;;;;22.50;69.85;101464.82;108470;1260;125960;-88
2023/08/16 03:59:01;;;;;;;;;;;;;;;22.62;69.39;101461.41;108667;1260;59032;-88
2023/08/16 04:01:31;;;;;;;;;;;;;;;22.95;69.46;101463.65;108951;1258;73190;-87
2023/08/16 04:03:59;;;;;;;;;;;;;;;23.33;68.99;101466.46;108383;1259;124857;-88
2023/08/16 04:06:27;;;;;;;;;;;;;;;23.66;68.32;101473.08;107629;1258;73887;-88
2023/08/16 04:08:54;;;;;;;;;;;;;;;23.91;67.92;101474.06;107352;1275;125384;-88
2023/08/16 04:11:21;;;;;;;;;;;;;;;24.15;67.09;101476.30;107655;1259;59885;-87
2023/08/16 04:13:48;;;;;;;;;;;;;;;24.55;67.14;101476.77;107619;1259;73951;-87
2023/08/16 04:16:15;;;;;;;;;;;;;;;25.31;66.77;101480.23;107435;1260;124660;-87
2023/08/16 04:18:53;;;;;;;;;;;;;;;26.19;65.96;101477.23;107516;1260;72473;-87
2023/08/16 04:21:23;;;;;;;;;;;;;;;27.06;64.64;101472.13;107859;1260;124544;-86
2023/08/16 04:23:52;;;;;;;;;;;;;;;27.83;63.18;101476.05;107796;1259;59599;-87
2023/08/16 04:26:29;;;;;;;;;;;;;;;28.43;61.58;101472.59;107786;1260;124786;-87
2023/08/16 04:28:56;;;;;;;;;;;;;;;28.83;60.36;101473.79;107848;1259;66195;-88
2023/08/16 04:31:23;;;;;;;;;;;;;;;29.30;59.52;101474.96;107590;1260;72712;-88
2023/08/16 04:33:52;;;;;;;;;;;;;;;29.74;58.61;101482.67;107379;1259;124292;-86
2023/08/16 04:36:22;;;;;;;;;;;;;;;30.42;57.92;101488.34;107458;1260;59627;-87
2023/08/16 04:38:49;;;;;;;;;;;;;;;31.06;56.63;101492.60;107298;1263;124873;-87
2023/08/16 04:41:16;;;;;;;;;;;;;;;31.55;55.70;101495.93;107324;1260;61265;-87
2023/08/16 04:43:43;;;;;;;;;;;;;;;32.09;54.67;101497.69;107364;1260;65427;-87
2023/08/16 04:46:10;;;;;;;;;;;;;;;32.55;53.52;101496.30;107812;1260;124942;-87
2023/08/16 04:48:37;;;;;;;;;;;;;;;32.94;52.48;101497.40;108065;1260;59594;-88
2023/08/16 04:51:04;;;;;;;;;;;;;;;33.27;51.46;101492.04;107273;1260;124836;-87
2023/08/16 04:53:34;;;;;;;;;;;;;;;33.66;50.62;101497.24;107381;1259;61263;-86
2023/08/16 04:56:01;;;;;;;;;;;;;;;34.06;49.92;101499.18;107708;1259;62631;-87
2023/08/16 04:58:28;;;;;;;;;;;;;;;34.54;49.22;101503.23;107525;1266;125926;-87
2023/08/16 05:00:55;;;;;;;;;;;;;;;35.09;48.39;101502.47;107771;1265;61244;-87
2023/08/16 05:03:22;;;;;;;;;;;;;;;35.56;47.25;101498.97;107609;1260;124532;-87
2023/08/16 05:05:54;;;;;;;;;;;;;;;35.68;46.36;101496.84;107604;1258;61191;-86
2023/08/16 05:08:21;;;;;;;;;;;;;;;35.97;45.45;101495.77;107248;1258;124726;-88
2023/08/16 05:10:51;;;;;;;;;;;;;;;35.96;44.76;101491.66;107394;1260;59566;-87
2023/08/16 05:13:19;;;;;;;;;;;;;;;35.95;44.15;101492.23;107552;1260;61123;-87
2023/08/16 05:15:46;;;;;;;;;;;;;;;36.01;44.05;101490.22;107345;1259;124138;-86
2023/08/16 05:18:13;;;;;;;;;;;;;;;36.07;43.44;101488.46;107398;1259;61143;-87
2023/08/16 05:20:40;;;;;;;;;;;;;;;36.14;43.24;101488.90;107424;1259;125128;-87
2023/08/16 05:23:07;;;;;;;;;;;;;;;36.19;42.61;101487.83;107610;1265;59643;-86
2023/08/16 05:25:42;;;;;;;;;;;;;;;36.08;42.45;101484.91;107599;1259;60460;-88
2023/08/16 05:28:10;;;;;;;;;;;;;;;35.87;42.15;101489.89;107125;1268;124203;-88
2023/08/16 05:30:36;;;;;;;;;;;;;;;35.48;42.00;101494.73;107296;1265;61244;-88
2023/08/16 05:33:04;;;;;;;;;;;;;;;34.53;41.76;101496.92;107251;1260;124796;-87
2023/08/16 05:35:38;;;;;;;;;;;;;;;33.52;42.40;101498.77;107282;1260;60223;-87
2023/08/16 05:38:05;;;;;;;;;;;;;;;32.47;43.10;101502.73;107339;1261;59982;-87
2023/08/16 05:40:32;;;;;;;;;;;;;;;31.55;43.82;101504.44;107242;1261;124334;-88
2023/08/16 05:43:02;;;;;;;;;;;;;;;30.58;44.72;101503.71;107865;1260;59770;-87
2023/08/16 05:45:30;;;;;;;;;;;;;;;29.80;45.95;101507.91;107594;1259;125089;-88
2023/08/16 05:47:57;;;;;;;;;;;;;;;29.15;46.78;101508.81;107440;1260;61116;-89
2023/08/16 05:50:24;;;;;;;;;;;;;;;28.63;47.70;101508.14;107428;1259;125024;-88
2023/08/16 05:52:51;;;;;;;;;;;;;;;28.13;48.35;101504.19;107447;1260;75962;-89
2023/08/16 05:55:18;;;;;;;;;;;;;;;27.74;49.21;101503.94;107637;1258;66845;-88
2023/08/16 05:57:47;;;;;;;;;;;;;;;27.40;49.78;101504.54;107728;1260;124254;-89
2023/08/16 06:00:15;;;;;;;;;;;;;;;27.10;50.46;101502.42;107865;1259;59448;-88
2023/08/16 06:02:42;;;;;;;;;;;;;;;26.82;51.03;101497.71;107489;1260;124873;-88
2023/08/16 06:05:12;;;;;;;;;;;;;;;26.64;51.49;101509.05;107637;1260;74080;-87
2023/08/16 06:07:39;;;;;;;;;;;;;;;26.33;52.01;101502.37;107824;1259;65706;-87
2023/08/16 06:10:07;;;;;;;;;;;;;;;26.00;52.81;101499.36;108016;1260;124280;-88
2023/08/16 06:12:34;;;;;;;;;;;;;;;25.80;53.01;101500.39;107793;1265;59554;-87
2023/08/16 06:15:01;;;;;;;;;;;;;;;25.55;53.50;101506.06;107651;1259;124847;-88
2023/08/16 06:17:28;;;;;;;;;;;;;;;25.34;54.09;101502.28;107800;1259;73369;-89
2023/08/16 06:20:05;;;;;;;;;;;;;;;25.22;54.78;101499.16;107814;1262;65780;-88
2023/08/16 06:22:54;;;;;;;;;;;;;;;25.15;55.32;101500.55;107510;1260;72558;-88
2023/08/16 06:25:24;;;;;;;;;;;;;;;25.10;55.60;101504.28;107444;1258;59788;-88
2023/08/16 06:27:53;;;;;;;;;;;;;;;24.97;55.86;101501.31;107613;1265;124113;-89
2023/08/16 06:30:21;;;;;;;;;;;;;;;24.88;55.98;101502.98;108104;1259;74706;-88
2023/08/16 06:32:48;;;;;;;;;;;;;;;24.79;56.43;101503.52;107589;1262;124368;-88
2023/08/16 06:35:18;;;;;;;;;;;;;;;24.70;56.74;101494.75;107425;1260;73199;-89
2023/08/16 06:37:57;;;;;;;;;;;;;;;24.70;57.47;101494.94;107796;1262;59564;-89
2023/08/16 06:40:27;;;;;;;;;;;;;;;24.74;57.59;101497.90;107888;1264;125369;-88
2023/08/16 06:42:54;;;;;;;;;;;;;;;24.73;57.69;101495.02;107617;1260;73024;-89
2023/08/16 06:45:24;;;;;;;;;;;;;;;24.72;57.60;101501.16;107395;1260;124451;-88
2023/08/16 06:47:50;;;;;;;;;;;;;;;24.66;57.78;101501.85;108639;1263;71007;-90
2023/08/16 06:50:18;;;;;;;;;;;;;;;24.61;58.07;101503.73;108681;1260;60127;-89
2023/08/16 06:52:45;;;;;;;;;;;;;;;24.59;58.29;101506.29;108362;1260;124674;-89
2023/08/16 06:55:12;;;;;;;;;;;;;;;24.62;58.58;101503.17;108422;1257;75852;-89
2023/08/16 06:57:39;;;;;;;;;;;;;;;24.66;58.43;101505.08;108563;1259;124418;-86
2023/08/16 07:00:15;;;;;;;;;;;;;;;24.62;58.56;101513.04;108590;1260;71623;-87
2023/08/16 07:02:46;;;;;;;;;;;;;;;24.57;58.72;101517.10;108610;1262;123724;-85
2023/08/16 07:05:16;;;;;;;;;;;;;;;24.59;58.95;101518.50;108714;1259;59892;-85
2023/08/16 07:07:49;;;;;;;;;;;;;;;24.61;58.89;101516.30;108609;1259;74777;-86
2023/08/16 07:10:16;;;;;;;;;;;;;;;24.56;58.82;101517.85;108566;1263;124487;-86
2023/08/16 07:12:44;;;;;;;;;;;;;;;24.50;59.22;101515.45;108520;1260;75735;-87
2023/08/16 07:15:12;;;;;;;;;;;;;;;24.57;59.36;101521.60;108512;1260;59850;-87
2023/08/16 07:17:40;;;;;;;;;;;;;;;24.60;59.54;101522.42;108528;1265;62683;-88
2023/08/16 07:20:10;;;;;;;;;;;;;;;24.64;59.51;101526.46;108594;1264;75047;-87
2023/08/16 07:22:38;;;;;;;;;;;;;;;24.64;59.45;101526.64;108592;1260;124556;-88
2023/08/16 07:25:06;;;;;;;;;;;;;;;24.64;59.46;101528.44;108681;1265;71354;-87
2023/08/16 07:27:33;;;;;;;;;;;;;;;24.62;59.53;101526.86;108417;1261;124522;-87
2023/08/16 07:30:22;;;;;;;;;;;;;;;24.61;59.82;101527.07;108529;1263;60033;-88
2023/08/16 07:32:54;;;;;;;;;;;;;;;24.61;59.65;101529.40;108478;1263;124274;-86
2023/08/16 07:35:33;;;;;;;;;;;;;;;24.64;60.04;101530.40;108618;1260;66297;-87
2023/08/16 07:38:13;;;;;;;;;;;;;;;24.72;60.12;101531.85;108544;1276;73151;-87
2023/08/16 07:40:46;;;;;;;;;;;;;;;24.72;59.85;101533.11;108532;1266;125365;-87
2023/08/16 07:43:15;;;;;;;;;;;;;;;24.71;59.87;101534.75;108672;1260;59554;-87
2023/08/16 07:45:42;;;;;;;;;;;;;;;24.70;60.07;101534.23;108493;1260;125282;-89
2023/08/16 07:48:10;;;;;;;;;;;;;;;24.78;60.18;101533.69;108780;1260;66469;-88
2023/08/16 07:50:37;;;;;;;;;;;;;;;24.93;60.30;101532.48;108591;1263;73727;-88
2023/08/16 07:53:04;;;;;;;;;;;;;;;25.14;60.34;101533.08;108507;1264;123877;-87
2023/08/16 07:55:32;;;;;;;;;;;;;;;25.25;59.91;101536.63;108762;1262;60240;-88
2023/08/16 07:58:02;;;;;;;;;;;;;;;25.29;59.88;101539.95;108472;1264;124839;-87
2023/08/16 08:01:01;;;;;;;;;;;;;;;;;;;;;
2023/08/16 08:07:52;;;;;;;;;;;;;;;;;;;;;
2023/08/16 08:11:00;;;;;;;;;;;;;;;25.59;59.34;101520.54;107914;1271;124815;-87
2023/08/16 08:13:47;;;;;;;;;;;;;;;25.63;59.68;101529.24;108152;1267;74240;-88
2023/08/16 08:16:42;;;;;;;;;;;;;;;25.71;59.59;101533.15;107995;1268;125298;-86
2023/08/16 08:20:14;;;;;;;;;;;;;;;25.71;59.27;101539.81;107998;1268;71295;-87
2023/08/16 08:22:51;;;;;;;;;;;;;;;25.50;59.12;101527.94;107389;1278;124501;-89
2023/08/16 08:25:42;;;;;;;;;;;;;;;;;;;;;
2023/08/16 08:28:44;;;;;;;;;;;;;;;25.29;59.63;101546.77;107079;1274;124127;-87
2023/08/16 08:31:31;;;;;;;;;;;;;;;25.30;59.63;101546.20;107182;1274;67446;-87
2023/08/16 08:34:13;;;;;;;;;;;;;;;25.30;59.65;101539.76;107001;1279;124475;-88
2023/08/16 08:36:39;;;;;;;;;;;;;;;25.16;59.66;101546.33;107162;1277;59418;-87
2023/08/16 08:39:06;;;;;;;;;;;;;;;25.08;59.75;101555.32;107371;1274;124776;-88
2023/08/16 08:41:33;;;;;;;;;;;;;;;25.09;60.01;101552.95;107465;1279;73992;-87
2023/08/16 08:44:01;;;;;;;;;;;;;;;25.07;59.90;101549.78;107850;1270;67098;-89
2023/08/16 08:46:29;;;;;;;;;;;;;;;24.98;60.07;101547.45;107937;1272;124295;-89
2023/08/16 08:49:00;;;;;;;;;;;;;;;24.99;60.44;101545.10;108003;1271;59605;-87
2023/08/16 08:51:28;;;;;;;;;;;;;;;25.09;60.53;101553.30;107698;1274;124832;-89
2023/08/16 08:53:55;;;;;;;;;;;;;;;25.15;60.45;101552.64;107761;1272;74888;-89
2023/08/16 08:56:28;;;;;;;;;;;;;;;25.29;60.43;101559.89;107951;1271;66989;-87
2023/08/16 08:58:55;;;;;;;;;;;;;;;25.47;60.41;101557.86;107978;1269;125600;-88
2023/08/16 09:01:23;;;;;;;;;;;;;;;25.57;60.23;101554.54;108438;1261;59590;-89
2023/08/16 09:03:50;;;;;;;;;;;;;;;25.53;60.01;101550.50;108445;1265;125144;-87
2023/08/16 09:06:17;;;;;;;;;;;;;;;25.54;60.15;101544.57;108545;1261;73017;-88
2023/08/16 09:08:45;;;;;;;;;;;;;;;25.63;60.44;101548.48;108601;1264;66886;-88
2023/08/16 09:11:13;;;;;;;;;;;;;;;25.67;60.15;101548.71;108336;1260;125008;-89
2023/08/16 09:13:40;;;;;;;;;;;;;;;25.65;60.30;101546.45;108476;1276;59900;-90
2023/08/16 09:16:10;;;;;;;;;;;;;;;25.63;60.13;101546.51;108268;1268;124813;-87
2023/08/16 09:18:37;;;;;;;;;;;;;;;25.58;60.24;101544.64;108449;1260;73888;-87
2023/08/16 09:21:04;;;;;;;;;;;;;;;25.52;60.24;101550.37;108374;1265;124634;-87
2023/08/16 09:23:32;;;;;;;;;;;;;;;25.44;60.28;101551.45;108456;1260;71875;-86
2023/08/16 09:25:59;;;;;;;;;;;;;;;25.45;60.52;101555.92;108553;1260;59357;-86
2023/08/16 09:28:29;;;;;;;;;;;;;;;25.48;60.47;101558.55;108595;1261;124226;-87
2023/08/16 09:30:56;;;;;;;;;;;;;;;25.48;60.58;101555.67;108607;1261;74251;-88
2023/08/16 09:33:24;;;;;;;;;;;;;;;25.52;60.68;101552.68;108363;1263;124384;-87
2023/08/16 09:35:51;;;;;;;;;;;;;;;25.57;60.60;101552.73;108427;1267;72141;-88
2023/08/16 09:38:21;;;;;;;;;;;;;;;25.61;60.40;101553.72;108480;1261;60056;-87
2023/08/16 09:40:49;;;;;;;;;;;;;;;25.64;60.44;101559.42;108390;1261;125929;-87
2023/08/16 09:43:19;;;;;;;;;;;;;;;25.71;60.48;101558.70;108748;1261;74672;-87
2023/08/16 09:45:47;;;;;;;;;;;;;;;25.76;60.54;101553.54;108493;1260;125319;-92
2023/08/16 09:48:14;;;;;;;;;;;;;;;25.84;60.03;101550.27;108624;1261;73278;-93
2023/08/16 09:50:41;;;;;;;;;;;;;;;25.87;59.91;101553.23;108588;1260;59526;-90
2023/08/16 09:53:12;;;;;;;;;;;;;;;25.90;59.99;101549.56;108729;1263;124071;-94
2023/08/16 09:55:42;;;;;;;;;;;;;;;25.94;59.59;101554.89;108742;1264;75788;-88
2023/08/16 09:58:12;;;;;;;;;;;;;;;25.90;59.54;101553.70;108380;1260;124480;-91
2023/08/16 10:00:40;;;;;;;;;;;;;;;25.91;59.56;101556.04;108689;1261;71874;-88
2023/08/16 10:03:08;;;;;;;;;;;;;;;25.93;59.60;101549.88;108504;1274;127781;-88
2023/08/16 10:05:36;;;;;;;;;;;;;;;26.02;59.69;101552.35;108509;1266;59573;-87
2023/08/16 10:08:05;;;;;;;;;;;;;;;26.09;59.37;101558.27;108442;1259;74549;-86
2023/08/16 10:10:32;;;;;;;;;;;;;;;26.13;59.12;101559.26;108338;1266;124140;-87
2023/08/16 10:12:59;;;;;;;;;;;;;;;26.15;58.86;101565.30;108523;1260;73155;-87
2023/08/16 10:15:26;;;;;;;;;;;;;;;26.16;58.60;101575.89;108546;1260;124674;-87
2023/08/16 10:17:53;;;;;;;;;;;;;;;26.18;58.56;101566.84;108612;1260;59897;-87
2023/08/16 10:20:22;;;;;;;;;;;;;;;26.21;58.51;101561.38;108475;1259;75595;-88
2023/08/16 10:22:51;;;;;;;;;;;;;;;26.27;58.51;101559.59;108440;1261;124992;-88
2023/08/16 10:25:23;;;;;;;;;;;;;;;26.36;58.44;101559.52;108635;1267;72618;-88
2023/08/16 10:27:50;;;;;;;;;;;;;;;26.45;58.31;101562.88;108508;1266;124157;-87
2023/08/16 10:30:21;;;;;;;;;;;;;;;26.52;57.87;101572.91;108588;1259;60219;-88
2023/08/16 10:32:53;;;;;;;;;;;;;;;26.49;57.06;101574.65;108607;1260;73124;-88
2023/08/16 10:35:20;;;;;;;;;;;;;;;26.43;56.92;101573.20;108250;1261;124049;-87
2023/08/16 10:37:48;;;;;;;;;;;;;;;26.36;57.07;101571.02;108441;1265;73148;-87
2023/08/16 10:40:16;;;;;;;;;;;;;;;26.37;57.22;101571.18;108319;1261;124858;-86
2023/08/16 10:43:09;;;;;;;;;;;;;;;26.41;57.13;101571.61;108487;1261;60106;-87
2023/08/16 10:45:36;;;;;;;;;;;;;;;26.48;57.16;101573.04;108624;1260;124358;-87
2023/08/16 10:48:10;;;;;;;;;;;;;;;26.50;56.72;101570.64;108722;1260;67446;-87
2023/08/16 10:50:37;;;;;;;;;;;;;;;26.48;56.40;101568.54;108419;1260;72812;-87
2023/08/16 10:53:04;;;;;;;;;;;;;;;26.48;56.60;101569.08;108319;1264;124792;-88
2023/08/16 10:55:31;;;;;;;;;;;;;;;26.46;56.55;101571.13;108673;1260;59092;-87
2023/08/16 10:57:58;;;;;;;;;;;;;;;26.45;56.66;101568.45;108540;1260;124746;-88
2023/08/16 11:00:35;;;;;;;;;;;;;;;26.47;56.72;101570.54;108572;1260;65902;-87
2023/08/16 11:03:04;;;;;;;;;;;;;;;26.54;56.62;101577.01;108346;1260;124890;-88
2023/08/16 11:05:33;;;;;;;;;;;;;;;26.60;56.51;101580.83;108526;1260;59870;-89
2023/08/16 11:08:04;;;;;;;;;;;;;;;26.60;56.27;101579.02;108454;1261;60513;-88
2023/08/16 11:10:37;;;;;;;;;;;;;;;26.60;56.33;101576.69;108515;1261;124831;-87
2023/08/16 11:13:08;;;;;;;;;;;;;;;26.65;56.31;101580.51;108645;1261;67460;-87
2023/08/16 11:15:35;;;;;;;;;;;;;;;26.66;55.92;101584.08;108510;1261;124761;-88
2023/08/16 11:18:02;;;;;;;;;;;;;;;26.68;55.80;101583.85;108749;1261;59464;-88
2023/08/16 11:20:29;;;;;;;;;;;;;;;26.69;55.81;101587.07;108594;1261;60030;-89
2023/08/16 11:22:57;;;;;;;;;;;;;;;26.69;55.89;101591.02;108499;1276;125288;-89
2023/08/16 11:25:31;;;;;;;;;;;;;;;26.68;55.98;101590.32;108667;1265;65241;-89
2023/08/16 11:28:04;;;;;;;;;;;;;;;26.68;55.83;101594.27;108497;1267;125388;-89
2023/08/16 11:30:34;;;;;;;;;;;;;;;26.66;56.00;101594.70;108604;1259;59490;-89
2023/08/16 11:33:01;;;;;;;;;;;;;;;26.67;56.34;101597.90;108365;1266;125020;-88
2023/08/16 11:35:28;;;;;;;;;;;;;;;26.74;56.56;101604.39;108759;1260;73444;-88
2023/08/16 11:37:55;;;;;;;;;;;;;;;26.74;56.48;101617.34;108758;1260;67165;-91
2023/08/16 11:40:24;;;;;;;;;;;;;;;26.61;56.15;101617.68;108526;1261;124586;-92
2023/08/16 11:42:51;;;;;;;;;;;;;;;26.47;56.46;101620.77;108510;1260;300748;-90
2023/08/16 11:45:18;;;;;;;;;;;;;;;26.37;56.80;101617.98;108443;1261;125407;-90
2023/08/16 11:47:48;;;;;;;;;;;;;;;26.29;57.17;101625.73;108494;1261;74536;-90
2023/08/16 11:50:15;;;;;;;;;;;;;;;26.20;57.25;101621.11;108612;1263;67116;-90
2023/08/16 11:52:42;;;;;;;;;;;;;;;26.19;57.48;101624.02;108367;1260;124997;-90
2023/08/16 11:55:13;;;;;;;;;;;;;;;26.14;57.30;101629.55;108601;1260;59391;-89
2023/08/16 11:57:44;;;;;;;;;;;;;;;26.10;57.78;101626.08;108669;1260;123653;-90
2023/08/16 12:00:14;;;;;;;;;;;;;;;26.10;58.08;101627.34;108621;1264;73485;-90
2023/08/16 12:02:44;;;;;;;;;;;;;;;26.03;58.22;101623.55;108508;1260;67319;-90
2023/08/16 12:05:12;;;;;;;;;;;;;;;26.01;58.35;101624.87;108491;1260;124215;-90
2023/08/16 12:07:42;;;;;;;;;;;;;;;25.98;58.65;101625.29;108608;1265;59231;-90
2023/08/16 12:10:09;;;;;;;;;;;;;;;25.93;58.63;101621.83;108294;1260;124888;-90
2023/08/16 12:12:38;;;;;;;;;;;;;;;25.89;58.70;101638.98;108531;1260;73968;-90
2023/08/16 12:15:06;;;;;;;;;;;;;;;25.79;58.65;101634.90;108386;1266;124475;-90
2023/08/16 12:17:33;;;;;;;;;;;;;;;25.69;58.85;101633.86;108476;1261;73791;-90
2023/08/16 12:20:03;;;;;;;;;;;;;;;25.66;58.86;101637.55;108501;1261;59438;-90
2023/08/16 12:22:30;;;;;;;;;;;;;;;25.68;59.11;101635.33;108287;1266;125069;-90
2023/08/16 12:24:58;;;;;;;;;;;;;;;25.71;58.90;101638.16;108451;1265;76011;-89
2023/08/16 12:27:25;;;;;;;;;;;;;;;25.71;59.10;101643.36;108444;1260;124660;-89
2023/08/16 12:29:52;;;;;;;;;;;;;;;25.70;58.88;101641.41;108542;1260;73524;-89
2023/08/16 12:32:19;;;;;;;;;;;;;;;25.68;58.70;101641.09;108578;1259;59354;-89
2023/08/16 12:34:49;;;;;;;;;;;;;;;25.71;59.08;101639.40;108521;1259;125443;-89
2023/08/16 12:37:18;;;;;;;;;;;;;;;25.78;58.87;101643.55;108475;1264;75087;-89
2023/08/16 12:39:45;;;;;;;;;;;;;;;25.78;58.66;101639.58;108257;1259;125341;-90
2023/08/16 12:42:12;;;;;;;;;;;;;;;25.80;58.60;101639.91;108629;1260;71449;-89